createdAt,value
2022-08-08T00:00:53.448Z,100396.78
2022-08-08T00:03:34.725Z,100388.63
2022-08-08T00:06:10.865Z,100399.69
2022-08-08T00:09:07.681Z,100397.53
2022-08-08T00:12:09.890Z,100398.44
2022-08-08T00:15:13.012Z,100398.78
2022-08-08T00:18:03.760Z,100395.16
2022-08-08T00:21:05.372Z,100389.34
2022-08-08T00:23:47.754Z,100390.69
2022-08-08T00:26:29.606Z,100383.88
2022-08-08T00:29:46.323Z,100383.31
2022-08-08T00:32:35.276Z,100382.81
2022-08-08T00:35:34.533Z,100368.28
2022-08-08T00:38:30.986Z,100371.19
2022-08-08T00:41:17.151Z,100373.03
2022-08-08T00:44:04.850Z,100369.63
2022-08-08T00:46:57.026Z,100372.50
2022-08-08T00:50:09.548Z,100376.16
2022-08-08T00:52:51.348Z,100375.53
2022-08-08T00:55:53.929Z,100373.13
2022-08-08T00:59:00.969Z,100367.16
2022-08-08T01:01:39.328Z,100370.69
2022-08-08T01:04:32.961Z,100366.72
2022-08-08T01:07:55.941Z,100368.87
2022-08-08T01:11:01.384Z,100369.13
2022-08-08T01:13:43.698Z,100361.75
2022-08-08T01:16:37.280Z,100355.44
2022-08-08T01:19:52.204Z,100360.78
2022-08-08T01:23:05.591Z,100363.31
2022-08-08T01:26:28.394Z,100360.03
2022-08-08T01:29:06.470Z,100375.22
2022-08-08T01:32:12.848Z,100365.28
2022-08-08T01:34:51.589Z,100363.94
2022-08-08T01:37:59.350Z,100372.16
2022-08-08T01:40:52.582Z,100356.81
2022-08-08T01:43:34.679Z,100351.47
2022-08-08T01:46:39.855Z,100345.28
2022-08-08T01:49:37.108Z,100340.78
2022-08-08T01:53:11.231Z,100338.50
2022-08-08T01:56:26.424Z,100344.09
2022-08-08T01:58:13.165Z,100337.66
2022-08-08T02:01:05.231Z,100343.44
2022-08-08T02:03:55.601Z,100349.16
2022-08-08T02:06:53.433Z,100347.00
2022-08-08T02:10:01.837Z,100354.97
2022-08-08T02:12:43.300Z,100356.56
2022-08-08T02:15:30.639Z,100352.59
2022-08-08T02:18:23.384Z,100365.09
2022-08-08T02:21:53.281Z,100369.69
2022-08-08T02:24:30.563Z,100368.87
2022-08-08T02:27:09.177Z,100374.41
2022-08-08T02:29:54.241Z,100378.50
2022-08-08T02:32:47.712Z,100373.78
2022-08-08T02:35:28.626Z,100384.12
2022-08-08T02:38:25.419Z,100383.44
2022-08-08T02:41:58.691Z,100385.22
2022-08-08T02:44:58.681Z,100384.38
2022-08-08T02:47:46.920Z,100380.63
2022-08-08T02:50:52.855Z,100379.06
2022-08-08T02:53:45.389Z,100377.25
2022-08-08T02:56:19.971Z,100374.44
2022-08-08T02:59:36.875Z,100375.78
2022-08-08T03:02:33.353Z,100384.50
2022-08-08T03:05:11.935Z,100392.81
2022-08-08T03:08:03.365Z,100390.53
2022-08-08T03:11:07.706Z,100395.88
2022-08-08T03:16:01.858Z,100396.59
2022-08-08T03:17:00.774Z,100391.97
2022-08-08T03:19:51.038Z,100389.59
2022-08-08T03:22:38.148Z,100397.09
2022-08-08T03:25:14.585Z,100393.34
2022-08-08T03:28:05.700Z,100393.59
2022-08-08T03:30:35.312Z,100390.31
2022-08-08T03:33:55.283Z,100397.22
2022-08-08T03:36:13.700Z,100389.06
2022-08-08T03:38:55.821Z,100392.94
2022-08-08T03:42:11.720Z,100393.94
2022-08-08T03:44:31.544Z,100393.19
2022-08-08T03:47:14.075Z,100394.94
2022-08-08T03:49:57.582Z,100388.44
2022-08-08T03:52:31.990Z,100398.62
2022-08-08T03:55:10.403Z,100407.81
2022-08-08T03:58:34.857Z,100399.84
2022-08-08T04:01:02.054Z,100388.25
2022-08-08T04:03:59.951Z,100394.38
2022-08-08T04:06:30.804Z,100397.69
2022-08-08T04:09:08.859Z,100404.59
2022-08-08T04:11:57.762Z,100398.59
2022-08-08T04:14:34.492Z,100400.63
2022-08-08T04:17:07.002Z,100408.81
2022-08-08T04:19:44.726Z,100412.06
2022-08-08T04:22:16.517Z,100409.25
2022-08-08T04:24:48.691Z,100409.72
2022-08-08T04:27:43.023Z,100414.72
2022-08-08T04:30:17.698Z,100426.38
2022-08-08T04:32:50.343Z,100426.16
2022-08-08T04:35:22.745Z,100427.34
2022-08-08T04:37:55.800Z,100422.91
2022-08-08T04:40:26.884Z,100430.22
2022-08-08T04:43:00.833Z,100429.87
2022-08-08T04:45:30.196Z,100431.53
2022-08-08T04:48:00.890Z,100428.66
2022-08-08T04:50:38.304Z,100424.66
2022-08-08T04:53:52.116Z,100436.78
2022-08-08T04:55:57.668Z,100438.38
2022-08-08T04:58:26.428Z,100441.66
2022-08-08T05:00:55.491Z,100436.28
2022-08-08T05:04:09.636Z,100436.31
2022-08-08T05:06:25.293Z,100442.97
2022-08-08T05:08:55.868Z,100442.75
2022-08-08T05:11:26.242Z,100439.59
2022-08-08T05:14:01.449Z,100443.34
2022-08-08T05:16:54.214Z,100434.78
2022-08-08T05:20:09.195Z,100436.56
2022-08-08T05:22:10.226Z,100434.47
2022-08-08T05:24:40.393Z,100435.34
2022-08-08T05:27:10.503Z,100433.66
2022-08-08T05:29:40.733Z,100449.53
2022-08-08T05:32:12.845Z,100439.47
2022-08-08T05:34:50.644Z,100450.59
2022-08-08T05:37:28.361Z,100450.22
2022-08-08T05:40:17.373Z,100445.00
2022-08-08T05:42:53.827Z,100443.03
2022-08-08T05:45:25.700Z,100442.59
2022-08-08T05:48:08.743Z,100447.94
2022-08-08T05:50:39.180Z,100447.44
2022-08-08T05:53:23.128Z,100444.97
2022-08-08T05:56:11.619Z,100442.53
2022-08-08T05:58:57.966Z,100449.25
2022-08-08T06:01:51.186Z,100452.75
2022-08-08T06:04:28.047Z,100444.75
2022-08-08T06:07:00.510Z,100440.44
2022-08-08T06:09:58.020Z,100428.53
2022-08-08T06:12:30.000Z,100429.69
2022-08-08T06:15:02.680Z,100441.59
2022-08-08T06:17:50.865Z,100449.44
2022-08-08T06:20:25.923Z,100449.34
2022-08-08T06:22:57.928Z,100453.53
2022-08-08T06:25:33.431Z,100451.84
2022-08-08T06:28:31.661Z,100446.72
2022-08-08T06:31:03.047Z,100456.34
2022-08-08T06:34:25.566Z,100451.88
2022-08-08T06:36:53.810Z,100447.84
2022-08-08T06:39:32.506Z,100440.69
2022-08-08T06:42:09.498Z,100447.47
2022-08-08T06:44:42.729Z,100451.47
2022-08-08T06:47:11.224Z,100457.69
2022-08-08T06:49:54.804Z,100463.06
2022-08-08T06:52:27.866Z,100466.28
2022-08-08T06:54:58.755Z,100459.56
2022-08-08T06:57:29.260Z,100457.37
2022-08-08T07:00:30.182Z,100460.69
2022-08-08T07:03:04.847Z,100466.84
2022-08-08T07:05:40.176Z,100468.09
2022-08-08T07:08:12.319Z,100470.53
2022-08-08T07:10:57.977Z,100469.56
2022-08-08T07:13:35.608Z,100457.34
2022-08-08T07:16:29.056Z,100454.94
2022-08-08T07:19:12.477Z,100444.63
2022-08-08T07:22:02.036Z,100448.97
2022-08-08T07:24:42.121Z,100454.19
2022-08-08T07:27:16.370Z,100462.09
2022-08-08T07:29:59.087Z,100469.91
2022-08-08T07:32:29.236Z,100470.25
2022-08-08T07:35:02.631Z,100465.00
2022-08-08T07:37:55.438Z,100471.06
2022-08-08T07:40:29.000Z,100469.72
2022-08-08T07:43:02.533Z,100469.69
2022-08-08T07:46:05.487Z,100476.00
2022-08-08T07:48:23.679Z,100476.28
2022-08-08T07:50:58.727Z,100477.19
2022-08-08T07:54:01.135Z,100478.06
2022-08-08T07:56:36.388Z,100476.75
2022-08-08T07:59:14.224Z,100489.62
2022-08-08T08:02:37.147Z,100488.13
2022-08-08T08:04:49.286Z,100495.03
2022-08-08T08:07:32.313Z,100487.72
2022-08-08T08:10:08.629Z,100484.59
2022-08-08T08:12:43.746Z,100482.91
2022-08-08T08:15:16.221Z,100484.06
2022-08-08T08:17:48.849Z,100482.91
2022-08-08T08:20:18.939Z,100484.87
2022-08-08T08:22:47.480Z,100486.69
2022-08-08T08:25:19.499Z,100478.59
2022-08-08T08:28:09.385Z,100485.44
2022-08-08T08:30:39.262Z,100472.66
2022-08-08T08:33:11.161Z,100479.16
2022-08-08T08:36:19.240Z,100483.72
2022-08-08T08:38:29.389Z,100480.63
2022-08-08T08:41:03.255Z,100486.97
2022-08-08T08:43:42.985Z,100494.13
2022-08-08T08:46:17.645Z,100500.97
2022-08-08T08:48:49.484Z,100502.81
2022-08-08T08:51:18.495Z,100505.25
2022-08-08T08:53:54.744Z,100496.88
2022-08-08T08:56:28.586Z,100502.97
2022-08-08T08:58:58.536Z,100502.06
2022-08-08T09:01:36.074Z,100506.81
2022-08-08T09:04:31.017Z,100504.00
2022-08-08T09:06:59.482Z,100501.72
2022-08-08T09:09:38.956Z,100511.87
2022-08-08T09:12:11.145Z,100511.31
2022-08-08T09:14:42.893Z,100507.09
2022-08-08T09:17:31.712Z,100510.22
2022-08-08T09:21:59.852Z,100511.78
2022-08-08T09:22:58.736Z,100515.06
2022-08-08T09:25:35.522Z,100518.87
2022-08-08T09:28:35.208Z,100511.66
2022-08-08T09:31:21.135Z,100508.28
2022-08-08T09:34:31.073Z,100503.94
2022-08-08T09:37:10.161Z,100503.62
2022-08-08T09:39:43.068Z,100503.03
2022-08-08T09:42:22.277Z,100508.34
2022-08-08T09:44:55.664Z,100506.22
2022-08-08T09:47:26.622Z,100499.66
2022-08-08T09:50:23.679Z,100499.78
2022-08-08T09:52:57.477Z,100491.00
2022-08-08T09:56:03.323Z,100486.88
2022-08-08T09:58:26.064Z,100488.88
2022-08-08T10:01:15.067Z,100481.44
2022-08-08T10:03:58.559Z,100484.37
2022-08-08T10:06:32.350Z,100485.19
2022-08-08T10:09:01.958Z,100482.13
2022-08-08T10:12:23.213Z,100483.63
2022-08-08T10:14:28.576Z,100482.38
2022-08-08T10:17:38.741Z,100484.03
2022-08-08T10:20:00.813Z,100492.59
2022-08-08T10:22:29.983Z,100497.19
2022-08-08T10:25:16.196Z,100501.91
2022-08-08T10:27:44.747Z,100501.31
2022-08-08T10:30:16.804Z,100496.47
2022-08-08T10:33:02.349Z,100493.78
2022-08-08T10:36:07.495Z,100487.69
2022-08-08T10:38:22.154Z,100483.75
2022-08-08T10:40:53.721Z,100477.41
2022-08-08T10:43:23.315Z,100460.63
2022-08-08T10:45:57.563Z,100477.13
2022-08-08T10:48:57.558Z,100470.84
2022-08-08T10:51:40.998Z,100471.03
2022-08-08T10:54:21.087Z,100486.53
2022-08-08T10:57:03.779Z,100495.91
2022-08-08T10:59:39.627Z,100503.50
2022-08-08T11:02:09.597Z,100509.06
2022-08-08T11:04:53.688Z,100495.22
2022-08-08T11:07:40.607Z,100508.53
2022-08-08T11:10:19.821Z,100503.94
2022-08-08T11:13:27.802Z,100499.09
2022-08-08T11:15:58.910Z,100505.69
2022-08-08T11:18:30.629Z,100502.34
2022-08-08T11:21:09.959Z,100498.16
2022-08-08T11:24:01.860Z,100484.19
2022-08-08T11:26:38.281Z,100485.25
2022-08-08T11:29:23.544Z,100473.47
2022-08-08T11:32:13.393Z,100483.16
2022-08-08T11:35:29.560Z,100490.53
2022-08-08T11:38:35.276Z,100479.16
2022-08-08T11:40:26.826Z,100467.28
2022-08-08T11:42:56.282Z,100477.87
2022-08-08T11:45:24.158Z,100485.19
2022-08-08T11:48:04.626Z,100483.63
2022-08-08T11:50:34.835Z,100502.28
2022-08-08T11:53:07.777Z,100500.75
2022-08-08T11:55:49.002Z,100498.88
2022-08-08T11:58:17.747Z,100492.31
2022-08-08T12:00:53.499Z,100490.56
2022-08-08T12:03:30.657Z,100501.19
2022-08-08T12:05:59.606Z,100504.28
2022-08-08T12:08:37.576Z,100507.13
2022-08-08T12:11:14.342Z,100511.63
2022-08-08T12:14:03.412Z,100507.75
2022-08-08T12:16:44.758Z,100512.91
2022-08-08T12:19:31.078Z,100499.72
2022-08-08T12:22:09.206Z,100508.28
2022-08-08T12:24:54.199Z,100505.31
2022-08-08T12:27:27.042Z,100496.47
2022-08-08T12:30:15.912Z,100498.59
2022-08-08T12:32:50.638Z,100505.37
2022-08-08T12:35:22.701Z,100500.16
2022-08-08T12:38:09.162Z,100486.22
2022-08-08T12:40:56.663Z,100502.53
2022-08-08T12:43:43.551Z,100504.81
2022-08-08T12:46:25.264Z,100512.13
2022-08-08T12:49:25.841Z,100514.00
2022-08-08T12:51:58.582Z,100512.50
2022-08-08T12:54:37.099Z,100520.56
2022-08-08T12:57:26.196Z,100525.25
2022-08-08T13:00:06.182Z,100523.84
2022-08-08T13:02:51.433Z,100525.63
2022-08-08T13:05:26.250Z,100528.13
2022-08-08T13:08:22.085Z,100534.97
2022-08-08T13:10:55.668Z,100535.91
2022-08-08T13:13:28.862Z,100530.69
2022-08-08T13:16:25.297Z,100522.09
2022-08-08T13:19:00.665Z,100527.25
2022-08-08T13:21:55.391Z,100517.34
2022-08-08T13:24:41.987Z,100520.84
2022-08-08T13:27:16.691Z,100516.38
2022-08-08T13:30:04.004Z,100512.88
2022-08-08T13:32:36.243Z,100509.16
2022-08-08T13:35:24.209Z,100506.66
2022-08-08T13:38:06.881Z,100505.88
2022-08-08T13:40:41.414Z,100498.41
2022-08-08T13:43:09.528Z,100487.53
2022-08-08T13:45:37.723Z,100491.22
2022-08-08T13:48:12.428Z,100494.06
2022-08-08T13:50:55.265Z,100482.94
2022-08-08T13:53:34.212Z,100483.16
2022-08-08T13:56:11.718Z,100485.31
2022-08-08T13:58:58.680Z,100476.72
2022-08-08T14:01:33.062Z,100473.72
2022-08-08T14:04:23.093Z,100479.16
2022-08-08T14:07:03.329Z,100474.50
2022-08-08T14:10:06.108Z,100480.34
2022-08-08T14:12:28.014Z,100477.56
2022-08-08T14:14:56.414Z,100475.84
2022-08-08T14:17:57.765Z,100469.38
2022-08-08T14:20:15.817Z,100473.78
2022-08-08T14:23:10.236Z,100473.69
2022-08-08T14:25:54.035Z,100480.34
2022-08-08T14:28:28.985Z,100477.34
2022-08-08T14:31:09.406Z,100479.16
2022-08-08T14:33:37.791Z,100484.66
2022-08-08T14:36:13.320Z,100473.97
2022-08-08T14:38:52.350Z,100479.28
2022-08-08T14:41:45.544Z,100477.87
2022-08-08T14:44:17.087Z,100476.94
2022-08-08T14:47:00.368Z,100479.16
2022-08-08T14:49:51.505Z,100478.66
2022-08-08T14:52:28.600Z,100469.69
2022-08-08T14:54:57.366Z,100477.50
2022-08-08T14:58:05.851Z,100472.75
2022-08-08T15:00:16.213Z,100488.44
2022-08-08T15:02:58.798Z,100493.75
2022-08-08T15:05:52.833Z,100488.09
2022-08-08T15:08:35.007Z,100493.44
2022-08-08T15:11:10.167Z,100487.50
2022-08-08T15:14:01.847Z,100494.50
2022-08-08T15:16:34.774Z,100492.06
2022-08-08T15:19:04.902Z,100495.75
2022-08-08T15:21:32.847Z,100491.19
2022-08-08T15:24:00.934Z,100497.66
2022-08-08T15:26:29.686Z,100483.75
2022-08-08T15:28:57.563Z,100493.50
2022-08-08T15:32:03.096Z,100492.28
2022-08-08T15:34:29.896Z,100487.34
2022-08-08T15:37:03.528Z,100502.00
2022-08-08T15:39:38.062Z,100499.91
2022-08-08T15:42:10.357Z,100493.53
2022-08-08T15:44:42.579Z,100496.38
2022-08-08T15:47:16.245Z,100494.59
2022-08-08T15:49:48.654Z,100494.22
2022-08-08T15:52:20.466Z,100496.53
2022-08-08T15:54:51.881Z,100497.28
2022-08-08T15:57:23.183Z,100488.69
2022-08-08T16:00:06.596Z,100488.53
2022-08-08T16:02:50.389Z,100486.69
2022-08-08T16:05:23.770Z,100491.09
2022-08-08T16:07:54.386Z,100485.41
2022-08-08T16:13:11.972Z,100480.25
2022-08-08T16:13:34.932Z,100478.81
2022-08-08T16:16:13.187Z,100483.06
2022-08-08T16:18:57.163Z,100473.34
2022-08-08T16:21:32.056Z,100472.22
2022-08-08T16:24:05.976Z,100467.84
2022-08-08T16:26:36.914Z,100471.09
2022-08-08T16:29:16.267Z,100472.06
2022-08-08T16:31:50.082Z,100479.34
2022-08-08T16:34:21.199Z,100472.72
2022-08-08T16:36:50.896Z,100476.63
2022-08-08T16:40:00.759Z,100471.22
2022-08-08T16:42:17.967Z,100474.44
2022-08-08T16:44:54.700Z,100479.81
2022-08-08T16:47:40.488Z,100477.56
2022-08-08T16:50:15.663Z,100478.69
2022-08-08T16:55:22.814Z,100480.66
2022-08-08T16:55:55.417Z,100484.72
2022-08-08T16:58:25.795Z,100487.44
2022-08-08T17:00:58.128Z,100491.66
2022-08-08T17:03:58.567Z,100485.06
2022-08-08T17:06:35.352Z,100496.94
2022-08-08T17:09:04.119Z,100500.97
2022-08-08T17:11:39.206Z,100491.09
2022-08-08T17:14:19.602Z,100502.91
2022-08-08T17:16:57.222Z,100506.78
2022-08-08T17:19:30.300Z,100516.50
2022-08-08T17:22:01.887Z,100515.31
2022-08-08T17:24:31.042Z,100522.78
2022-08-08T17:27:00.673Z,100523.41
2022-08-08T17:29:33.677Z,100532.06
2022-08-08T17:32:05.928Z,100530.91
2022-08-08T17:35:14.624Z,100539.94
2022-08-08T17:37:27.595Z,100538.44
2022-08-08T17:40:05.968Z,100530.75
2022-08-08T17:42:47.325Z,100540.59
2022-08-08T17:45:23.234Z,100528.69
2022-08-08T17:47:54.586Z,100528.41
2022-08-08T17:50:23.901Z,100531.09
2022-08-08T17:52:53.183Z,100524.94
2022-08-08T17:56:04.874Z,100525.78
2022-08-08T17:58:11.911Z,100516.69
2022-08-08T18:00:41.545Z,100521.16
2022-08-08T18:03:13.334Z,100523.81
2022-08-08T18:05:48.341Z,100514.31
2022-08-08T18:08:25.239Z,100517.38
2022-08-08T18:11:15.504Z,100534.34
2022-08-08T18:13:46.324Z,100541.84
2022-08-08T18:16:16.991Z,100547.94
2022-08-08T18:18:56.240Z,100555.28
2022-08-08T18:21:58.932Z,100550.59
2022-08-08T18:24:21.416Z,100553.50
2022-08-08T18:26:53.824Z,100550.72
2022-08-08T18:29:32.928Z,100557.25
2022-08-08T18:32:07.577Z,100552.00
2022-08-08T18:34:40.370Z,100559.09
2022-08-08T18:37:17.740Z,100569.13
2022-08-08T18:40:00.530Z,100564.12
2022-08-08T18:42:29.151Z,100573.72
2022-08-08T18:44:58.500Z,100572.97
2022-08-08T18:47:33.414Z,100564.09
2022-08-08T18:50:03.022Z,100561.09
2022-08-08T18:52:36.747Z,100565.66
2022-08-08T18:55:10.391Z,100567.88
2022-08-08T18:57:43.505Z,100561.31
2022-08-08T19:00:20.952Z,100562.81
2022-08-08T19:02:56.690Z,100565.56
2022-08-08T19:05:34.543Z,100573.38
2022-08-08T19:08:24.640Z,100570.13
2022-08-08T19:11:01.746Z,100572.87
2022-08-08T19:13:52.821Z,100589.22
2022-08-08T19:16:23.659Z,100589.87
2022-08-08T19:19:02.231Z,100585.91
2022-08-08T19:21:33.264Z,100587.72
2022-08-08T19:24:38.673Z,100585.00
2022-08-08T19:27:06.990Z,100588.44
2022-08-08T19:29:40.704Z,100584.81
2022-08-08T19:32:13.069Z,100585.72
2022-08-08T19:34:49.435Z,100587.69
2022-08-08T19:37:42.168Z,100589.34
2022-08-08T19:40:14.641Z,100589.78
2022-08-08T19:42:45.749Z,100591.28
2022-08-08T19:45:14.488Z,100592.03
2022-08-08T19:48:02.111Z,100588.41
2022-08-08T19:50:30.761Z,100595.12
2022-08-08T19:52:59.758Z,100589.03
2022-08-08T19:55:28.004Z,100585.00
2022-08-08T19:58:04.076Z,100585.31
2022-08-08T20:00:37.197Z,100586.50
2022-08-08T20:03:15.290Z,100588.81
2022-08-08T20:06:15.394Z,100580.22
2022-08-08T20:08:48.343Z,100582.22
2022-08-08T20:11:21.953Z,100576.72
2022-08-08T20:14:31.855Z,100576.37
2022-08-08T20:16:41.106Z,100579.16
2022-08-08T20:19:12.681Z,100568.97
2022-08-08T20:21:43.287Z,100563.38
2022-08-08T20:24:16.963Z,100559.19
2022-08-08T20:26:49.409Z,100570.22
2022-08-08T20:29:20.915Z,100567.16
2022-08-08T20:32:09.826Z,100565.84
2022-08-08T20:34:47.686Z,100564.50
2022-08-08T20:37:16.518Z,100566.63
2022-08-08T20:39:51.273Z,100560.25
2022-08-08T20:42:23.696Z,100562.78
2022-08-08T20:44:59.103Z,100560.97
2022-08-08T20:47:36.114Z,100561.94
2022-08-08T20:50:06.152Z,100564.94
2022-08-08T20:52:38.778Z,100566.00
2022-08-08T20:55:16.288Z,100563.00
2022-08-08T20:57:54.479Z,100558.44
2022-08-08T21:00:26.994Z,100557.47
2022-08-08T21:02:55.366Z,100549.19
2022-08-08T21:05:23.618Z,100573.47
2022-08-08T21:08:33.587Z,100559.47
2022-08-08T21:10:48.335Z,100561.31
2022-08-08T21:13:17.920Z,100565.94
2022-08-08T21:16:06.000Z,100554.06
2022-08-08T21:18:34.284Z,100562.22
2022-08-08T21:21:20.558Z,100576.16
2022-08-08T21:24:19.226Z,100575.63
2022-08-08T21:26:54.865Z,100584.03
2022-08-08T21:30:05.728Z,100577.25
2022-08-08T21:32:24.883Z,100586.56
2022-08-08T21:34:56.793Z,100581.88
2022-08-08T21:37:53.743Z,100578.44
2022-08-08T21:40:31.228Z,100588.88
2022-08-08T21:43:00.270Z,100587.25
2022-08-08T21:48:01.787Z,100591.72
2022-08-08T21:48:21.113Z,100583.34
2022-08-08T21:50:51.780Z,100580.19
2022-08-08T21:54:32.492Z,100588.50
2022-08-08T21:56:19.747Z,100589.31
2022-08-08T21:58:58.683Z,100593.28
2022-08-08T22:01:41.183Z,100597.31
2022-08-08T22:04:12.505Z,100601.84
2022-08-08T22:06:40.924Z,100606.91
2022-08-08T22:09:09.899Z,100611.47
2022-08-08T22:12:03.163Z,100610.75
2022-08-08T22:14:30.917Z,100611.13
2022-08-08T22:17:01.697Z,100612.50
2022-08-08T22:20:11.386Z,100607.72
2022-08-08T22:22:28.688Z,100607.56
2022-08-08T22:24:58.813Z,100611.25
2022-08-08T22:28:00.908Z,100607.97
2022-08-08T22:30:29.677Z,100606.72
2022-08-08T22:33:02.527Z,100598.78
2022-08-08T22:36:03.970Z,100599.81
2022-08-08T22:38:29.306Z,100596.25
2022-08-08T22:40:59.437Z,100594.78
2022-08-08T22:43:39.219Z,100593.31
2022-08-08T22:46:09.104Z,100579.94
2022-08-08T22:48:40.004Z,100581.69
2022-08-08T22:51:12.802Z,100584.25
2022-08-08T22:54:34.035Z,100583.22
2022-08-08T22:56:42.375Z,100588.25
2022-08-08T22:59:25.810Z,100587.06
2022-08-08T23:02:02.622Z,100591.00
2022-08-08T23:04:35.625Z,100592.13
2022-08-08T23:07:05.264Z,100588.53
2022-08-08T23:09:39.485Z,100590.69
2022-08-08T23:12:40.685Z,100593.16
2022-08-08T23:16:42.019Z,100585.72
2022-08-08T23:18:02.415Z,100589.81
2022-08-08T23:20:35.619Z,100592.72
2022-08-08T23:23:05.846Z,100591.28
2022-08-08T23:25:48.218Z,100590.88
2022-08-08T23:28:19.154Z,100595.81
2022-08-08T23:30:51.320Z,100598.28
2022-08-08T23:34:17.163Z,100586.28
2022-08-08T23:36:21.015Z,100597.50
2022-08-08T23:38:57.840Z,100602.31
2022-08-08T23:41:31.679Z,100612.94
2022-08-08T23:44:18.507Z,100610.56
2022-08-08T23:49:03.598Z,100616.63
2022-08-08T23:49:42.539Z,100621.03
2022-08-08T23:52:22.107Z,100627.13
2022-08-08T23:55:07.719Z,100634.13
2022-08-08T23:57:52.371Z,100628.25
